Time;durP1;ratioP1;P1;durP2;ratioP2;P2;SDS_P1;SDS_P2;PMS_P1;PMS_P2;Temp;Humidity;BMP_temperature;BMP_pressure;BME280_temperature;BME280_humidity;BME280_pressure;Samples;Min_cycle;Max_cycle;Signal;HPM_P1;HPM_P2
2023/10/25 00:02:25;;;;;;;72.93;4.53;;;;;;;8.14;100.00;91448.16;6281067;22;20006;-83
2023/10/25 00:04:57;;;;;;;140.18;5.38;;;;;;;8.14;100.00;91448.16;6308525;22;20082;-83
2023/10/25 00:07:22;;;;;;;101.37;4.47;;;;;;;8.10;100.00;91431.56;6308020;22;20365;-83
2023/10/25 00:09:48;;;;;;;14.75;3.42;;;;;;;8.09;100.00;91430.03;6308425;22;20003;-82
2023/10/25 00:12:14;;;;;;;12.95;2.95;;;;;;;8.09;100.00;91435.25;6307149;22;19999;-83
2023/10/25 00:14:41;;;;;;;17.00;3.03;;;;;;;8.04;100.00;91432.75;6309154;22;20019;-83
2023/10/25 00:17:07;;;;;;;17.02;3.13;;;;;;;8.01;100.00;91443.75;6280232;22;20015;-82
2023/10/25 00:19:33;;;;;;;5.20;2.50;;;;;;;7.97;100.00;91437.63;6308168;22;20074;-83
2023/10/25 00:21:58;;;;;;;5.05;2.50;;;;;;;7.92;100.00;91435.09;6307659;22;20018;-82
2023/10/25 00:24:24;;;;;;;3.88;2.00;;;;;;;7.87;100.00;91437.81;6308756;22;20014;-82
2023/10/25 00:26:50;;;;;;;3.08;1.70;;;;;;;7.82;100.00;91435.34;6308508;22;20047;-82
2023/10/25 00:29:16;;;;;;;4.43;2.13;;;;;;;7.79;100.00;91443.72;6307362;22;20003;-82
2023/10/25 00:31:42;;;;;;;7.20;2.53;;;;;;;7.77;100.00;91445.84;6307400;22;20018;-83
2023/10/25 00:34:08;;;;;;;5.18;2.40;;;;;;;7.76;100.00;91447.69;6281190;22;20232;-82
2023/10/25 00:36:34;;;;;;;4.07;1.83;;;;;;;7.72;100.00;91439.72;6307496;22;20011;-83
2023/10/25 00:39:01;;;;;;;4.20;1.67;;;;;;;7.75;100.00;91440.19;6282003;22;20294;-82
2023/10/25 00:41:27;;;;;;;5.57;1.60;;;;;;;7.77;100.00;91440.63;6280737;22;20015;-83
2023/10/25 00:43:53;;;;;;;2.42;1.33;;;;;;;7.74;100.00;91438.63;6281788;22;20003;-82
2023/10/25 00:46:24;;;;;;;2.30;1.30;;;;;;;7.69;100.00;91436.91;6307971;22;20015;-82
2023/10/25 00:48:54;;;;;;;24.25;3.00;;;;;;;7.69;100.00;91436.91;6308262;22;20042;-83
2023/10/25 00:51:22;;;;;;;76.60;3.25;;;;;;;7.69;100.00;91432.47;6308427;22;20086;-83
2023/10/25 00:53:50;;;;;;;73.32;3.15;;;;;;;7.75;100.00;91430.53;6308463;22;20010;-83
2023/10/25 00:56:17;;;;;;;183.95;4.53;;;;;;;7.79;100.00;91436.69;6280837;22;20015;-82
2023/10/25 00:58:49;;;;;;;93.30;3.38;;;;;;;7.83;100.00;91427.22;6307868;22;20036;-82
2023/10/25 01:01:15;;;;;;;85.45;3.28;;;;;;;7.87;100.00;91427.41;6308916;22;20007;-83
2023/10/25 01:03:41;;;;;;;118.72;3.30;;;;;;;7.87;100.00;91422.97;6281414;22;20145;-82
2023/10/25 01:06:07;;;;;;;73.95;2.80;;;;;;;7.88;100.00;91423.72;6254983;22;20003;-82
2023/10/25 01:08:33;;;;;;;51.03;2.72;;;;;;;7.86;100.00;91415.44;6281174;22;20088;-83
2023/10/25 01:10:58;;;;;;;22.08;2.65;;;;;;;7.85;100.00;91425.09;6308538;22;20015;-82
2023/10/25 01:13:24;;;;;;;47.38;2.83;;;;;;;7.80;100.00;91421.84;6307284;22;20003;-82
2023/10/25 01:15:50;;;;;;;5.43;2.00;;;;;;;7.78;100.00;91416.91;6309583;22;20023;-83
2023/10/25 01:18:16;;;;;;;4.55;1.77;;;;;;;7.74;100.00;91425.59;6281102;22;20015;-83
2023/10/25 01:20:43;;;;;;;3.70;1.25;;;;;;;7.71;100.00;91419.91;6282011;22;20337;-83
2023/10/25 01:23:08;;;;;;;4.18;1.35;;;;;;;7.65;100.00;91421.09;6281730;22;20006;-83
2023/10/25 01:25:35;;;;;;;1.98;1.23;;;;;;;7.62;100.00;91408.66;6280014;22;20345;-82
2023/10/25 01:28:02;;;;;;;3.17;1.60;;;;;;;7.58;100.00;91407.69;6281408;22;20007;-83
2023/10/25 01:30:27;;;;;;;2.50;1.40;;;;;;;7.56;100.00;91407.22;6280561;22;20041;-82
2023/10/25 01:32:54;;;;;;;3.45;1.60;;;;;;;7.53;100.00;91407.81;6305365;22;20003;-82
2023/10/25 01:35:20;;;;;;;3.15;1.58;;;;;;;7.49;100.00;91402.41;6304958;22;20023;-82
2023/10/25 01:37:46;;;;;;;3.75;1.58;;;;;;;7.45;100.00;91411.09;6305645;22;20436;-82
2023/10/25 01:40:12;;;;;;;3.20;1.70;;;;;;;7.41;100.00;91404.97;6305727;22;20095;-81
2023/10/25 01:42:37;;;;;;;3.70;1.55;;;;;;;7.40;100.00;91416.41;6279632;22;20007;-82
2023/10/25 01:45:04;;;;;;;2.00;1.20;;;;;;;7.40;100.00;91409.38;6280578;22;20011;-82
2023/10/25 01:47:30;;;;;;;3.72;1.60;;;;;;;7.42;100.00;91407.25;6307999;22;19999;-82
2023/10/25 01:49:55;;;;;;;2.20;1.40;;;;;;;7.44;100.00;91414.78;6306567;22;20091;-82
2023/10/25 01:52:21;;;;;;;2.17;1.27;;;;;;;7.48;100.00;91408.69;6306635;22;20428;-82
2023/10/25 01:54:50;;;;;;;2.40;1.30;;;;;;;7.48;100.00;91408.69;6280110;22;20037;-83
2023/10/25 01:57:19;;;;;;;3.25;1.08;;;;;;;7.42;100.00;91406.50;6278073;22;20011;-82
2023/10/25 01:59:44;;;;;;;1.83;1.10;;;;;;;7.42;100.00;91419.50;6279697;22;20026;-83
2023/10/25 02:02:11;;;;;;;2.42;1.20;;;;;;;7.40;100.00;91413.81;6255101;22;20011;-82
2023/10/25 02:04:36;;;;;;;2.97;1.70;;;;;;;7.39;100.00;91407.09;6280176;22;20015;-83
2023/10/25 02:07:02;;;;;;;22.33;2.75;;;;;;;7.39;100.00;91412.28;6306619;22;20005;-83
2023/10/25 02:09:29;;;;;;;8.63;2.97;;;;;;;7.41;100.00;91399.75;6307137;22;20442;-82
2023/10/25 02:11:55;;;;;;;14.05;3.00;;;;;;;7.41;100.00;91399.75;6279704;22;20003;-82
2023/10/25 02:14:21;;;;;;;20.40;3.35;;;;;;;7.41;100.00;91397.91;6274964;22;20027;-83
2023/10/25 02:16:47;;;;;;;7.60;2.50;;;;;;;7.42;100.00;91396.84;6274393;22;20008;-83
2023/10/25 02:19:14;;;;;;;4.47;2.30;;;;;;;7.42;100.00;91401.28;6275210;22;20390;-82
2023/10/25 02:21:40;;;;;;;8.30;2.63;;;;;;;7.40;100.00;91400.78;6275884;22;20372;-83
2023/10/25 02:24:06;;;;;;;5.13;2.70;;;;;;;7.36;100.00;91397.22;6275826;22;20016;-83
2023/10/25 02:26:32;;;;;;;9.93;2.60;;;;;;;7.34;100.00;91404.56;6277523;22;19996;-82
2023/10/25 02:28:58;;;;;;;2.80;1.50;;;;;;;7.28;100.00;91401.31;6274890;22;20016;-82
2023/10/25 02:31:24;;;;;;;2.67;1.50;;;;;;;7.32;100.00;91401.47;6275779;22;20692;-82
2023/10/25 02:33:50;;;;;;;1.95;1.10;;;;;;;7.38;100.00;91397.72;6274908;22;20046;-82
2023/10/25 02:36:16;;;;;;;1.58;1.10;;;;;;;7.48;100.00;91400.13;6273008;22;20007;-82
2023/10/25 02:38:42;;;;;;;5.30;1.30;;;;;;;7.44;100.00;91396.56;6272458;22;20019;-82
2023/10/25 02:41:08;;;;;;;1.33;0.98;;;;;;;7.63;100.00;91402.41;6273465;22;20004;-83
2023/10/25 02:43:34;;;;;;;1.33;1.10;;;;;;;7.76;100.00;91405.25;6274565;22;20019;-81
2023/10/25 02:46:05;;;;;;;1.98;1.10;;;;;;;7.76;100.00;91408.63;6274655;22;20326;-83
2023/10/25 02:48:31;;;;;;;1.10;1.00;;;;;;;8.01;100.00;91411.72;6273682;22;20395;-81
2023/10/25 02:51:01;;;;;;;1.75;1.00;;;;;;;7.92;100.00;91419.47;6272767;22;20313;-83
2023/10/25 02:53:27;;;;;;;3.10;1.20;;;;;;;7.83;100.00;91418.63;6275132;22;20016;-82
2023/10/25 02:56:01;;;;;;;1.63;1.00;;;;;;;7.75;100.00;91414.91;6273484;22;20015;-82
2023/10/25 02:58:27;;;;;;;1.85;1.23;;;;;;;7.79;100.00;91415.06;6275961;22;20015;-83
2023/10/25 03:00:52;;;;;;;1.10;1.00;;;;;;;7.83;100.00;91408.22;6277234;22;20006;-83
2023/10/25 03:03:18;;;;;;;1.90;1.17;;;;;;;7.78;100.00;91410.94;6276828;22;20106;-81
2023/10/25 03:05:44;;;;;;;6.07;1.67;;;;;;;7.77;100.00;91411.97;6277176;22;20007;-82
2023/10/25 03:08:09;;;;;;;2.08;1.30;;;;;;;7.72;100.00;91411.06;6277590;22;20071;-83
2023/10/25 03:10:35;;;;;;;2.10;1.30;;;;;;;7.76;100.00;91415.66;6279122;22;20333;-83
2023/10/25 03:13:02;;;;;;;5.55;2.72;;;;;;;7.87;100.00;91417.75;6276625;22;20514;-82
2023/10/25 03:15:30;;;;;;;1.70;1.20;;;;;;;7.85;100.00;91426.94;6276612;22;20449;-83
2023/10/25 03:17:55;;;;;;;1.52;0.90;;;;;;;7.75;100.00;91414.91;6275898;22;20047;-82
2023/10/25 03:20:21;;;;;;;1.85;1.10;;;;;;;7.77;100.00;91427.63;6278720;22;20033;-83
2023/10/25 03:22:46;;;;;;;1.50;1.10;;;;;;;7.79;100.00;91426.28;6277428;22;20549;-82
2023/10/25 03:25:12;;;;;;;1.00;0.90;;;;;;;7.74;100.00;91433.41;6277860;22;20074;-82
2023/10/25 03:27:38;;;;;;;2.53;1.17;;;;;;;7.70;100.00;91428.81;6278510;22;20330;-83
2023/10/25 03:30:04;;;;;;;1.67;1.20;;;;;;;7.72;100.00;91424.06;6278810;22;20010;-83
2023/10/25 03:32:30;;;;;;;1.58;1.10;;;;;;;7.71;100.00;91430.34;6276427;22;20023;-83
2023/10/25 03:34:56;;;;;;;1.40;1.20;;;;;;;7.68;100.00;91433.53;6278350;22;20445;-83
2023/10/25 03:37:21;;;;;;;1.15;1.05;;;;;;;7.67;100.00;91431.22;6275914;22;20023;-83
2023/10/25 03:39:49;;;;;;;1.20;1.10;;;;;;;7.66;100.00;91438.28;6278189;22;20341;-83
2023/10/25 03:42:14;;;;;;;3.00;1.25;;;;;;;7.64;100.00;91432.56;6278393;22;20019;-83
2023/10/25 03:44:40;;;;;;;1.95;1.20;;;;;;;7.69;100.00;91440.28;6278508;22;20345;-83
2023/10/25 03:47:06;;;;;;;1.65;1.00;;;;;;;7.62;100.00;91433.94;6276775;22;20008;-83
2023/10/25 03:49:33;;;;;;;1.70;1.15;;;;;;;7.61;100.00;91429.78;6276615;22;20031;-83
2023/10/25 03:52:01;;;;;;;1.45;1.27;;;;;;;7.58;100.00;91440.78;6251214;22;20026;-82
2023/10/25 03:54:26;;;;;;;3.75;1.10;;;;;;;7.55;100.00;91447.34;6278468;22;20011;-82
2023/10/25 03:56:52;;;;;;;1.77;1.20;;;;;;;7.60;100.00;91447.25;6276649;22;20086;-83
2023/10/25 03:59:17;;;;;;;2.17;1.15;;;;;;;7.54;100.00;91448.41;6276877;22;20019;-82
2023/10/25 04:01:43;;;;;;;1.08;0.98;;;;;;;7.46;100.00;91447.28;6278028;22;20350;-82
2023/10/25 04:04:11;;;;;;;1.40;1.20;;;;;;;7.59;100.00;91453.53;6278317;22;19999;-83
2023/10/25 04:06:37;;;;;;;1.20;1.10;;;;;;;7.56;100.00;91453.34;6278023;22;20095;-83
2023/10/25 04:09:03;;;;;;;1.42;1.10;;;;;;;7.45;100.00;91448.34;6278042;22;20030;-82
2023/10/25 04:11:29;;;;;;;1.70;1.30;;;;;;;7.41;100.00;91451.81;6278270;22;20008;-82
2023/10/25 04:13:55;;;;;;;3.00;1.10;;;;;;;7.42;100.00;91453.34;6279064;22;20046;-83
2023/10/25 04:16:20;;;;;;;3.80;1.02;;;;;;;7.40;100.00;91455.47;6308397;22;20019;-83
2023/10/25 04:18:46;;;;;;;1.98;0.98;;;;;;;7.40;100.00;91451.03;6308059;22;20042;-83
2023/10/25 04:21:12;;;;;;;1.80;0.80;;;;;;;7.41;100.00;91446.63;6309047;22;20034;-83
2023/10/25 04:23:39;;;;;;;1.75;1.20;;;;;;;7.39;100.00;91446.13;6280091;22;20030;-84
2023/10/25 04:26:06;;;;;;;1.55;1.10;;;;;;;7.42;100.00;91448.91;6307307;22;20007;-83
2023/10/25 04:28:33;;;;;;;0.93;0.82;;;;;;;7.41;100.00;91450.00;6307014;22;20007;-83
2023/10/25 04:30:59;;;;;;;0.88;0.82;;;;;;;7.38;100.00;91447.19;6306921;22;20345;-83
2023/10/25 04:33:25;;;;;;;1.20;1.10;;;;;;;7.36;100.00;91452.66;6279813;22;20003;-82
2023/10/25 04:35:50;;;;;;;1.63;1.00;;;;;;;7.34;100.00;91446.22;6305158;22;20019;-82
2023/10/25 04:38:16;;;;;;;2.20;1.15;;;;;;;7.29;100.00;91444.50;6277539;22;20449;-82
2023/10/25 04:40:41;;;;;;;1.20;1.00;;;;;;;7.25;100.00;91441.72;6305393;22;20007;-83
2023/10/25 04:43:07;;;;;;;1.10;1.00;;;;;;;7.28;100.00;91448.16;6277966;22;20019;-83
2023/10/25 04:45:36;;;;;;;1.60;1.30;;;;;;;7.30;100.00;91449.41;6304990;22;20015;-83
2023/10/25 04:48:02;;;;;;;1.77;1.30;;;;;;;7.29;100.00;91454.91;6277344;22;20102;-84
2023/10/25 04:50:32;;;;;;;1.80;1.30;;;;;;;7.27;100.00;91457.81;6303235;22;20053;-83
2023/10/25 04:52:59;;;;;;;2.15;1.27;;;;;;;7.23;100.00;91462.06;6278505;22;20434;-82
2023/10/25 04:55:26;;;;;;;4.43;1.30;;;;;;;7.18;100.00;91453.56;6277156;22;20464;-83
2023/10/25 04:57:52;;;;;;;1.83;1.17;;;;;;;7.25;100.00;91462.53;6277388;22;20453;-84
2023/10/25 05:00:18;;;;;;;2.00;1.35;;;;;;;7.27;100.00;91465.63;6305098;22;20037;-85
2023/10/25 05:02:44;;;;;;;1.67;1.20;;;;;;;7.31;100.00;91457.97;6277680;22;20033;-84
2023/10/25 05:05:09;;;;;;;2.28;1.25;;;;;;;7.34;100.00;91456.63;6305029;22;20018;-81
2023/10/25 05:07:37;;;;;;;3.60;1.20;;;;;;;7.34;100.00;91456.63;6304105;22;20008;-83
2023/10/25 05:10:08;;;;;;;2.63;1.60;;;;;;;7.39;100.00;91464.34;6278577;22;20010;-83
2023/10/25 05:12:44;;;;;;;2.00;1.40;;;;;;;7.44;100.00;91462.41;6309898;22;20025;-83
2023/10/25 05:15:13;;;;;;;2.17;1.33;;;;;;;7.46;100.00;91462.13;6305292;22;20019;-82
2023/10/25 05:17:41;;;;;;;2.45;1.60;;;;;;;7.51;100.00;91464.63;6253215;22;20106;-83
2023/10/25 05:20:07;;;;;;;2.03;1.45;;;;;;;7.59;100.00;91458.75;6305011;22;20011;-83
2023/10/25 05:22:34;;;;;;;2.20;1.40;;;;;;;7.62;100.00;91457.38;6305268;22;20094;-83
2023/10/25 05:25:01;;;;;;;2.72;1.50;;;;;;;7.69;100.00;91468.94;6304560;22;20002;-83
2023/10/25 05:27:27;;;;;;;2.78;1.48;;;;;;;7.74;100.00;91475.09;6304436;22;20012;-82
2023/10/25 05:29:53;;;;;;;2.97;1.60;;;;;;;7.78;100.00;91470.84;6304990;22;20022;-82
2023/10/25 05:32:22;;;;;;;5.25;1.77;;;;;;;7.77;100.00;91456.28;6304551;22;20061;-82
2023/10/25 05:34:48;;;;;;;2.33;1.30;;;;;;;7.86;100.00;91459.75;6274915;22;20396;-82
2023/10/25 05:37:15;;;;;;;5.20;1.50;;;;;;;7.90;100.00;91463.28;6275378;22;20003;-82
2023/10/25 05:39:42;;;;;;;2.90;1.58;;;;;;;7.92;100.00;91464.56;6302295;22;20020;-82
2023/10/25 05:42:09;;;;;;;1.55;1.30;;;;;;;7.98;100.00;91467.03;6303384;22;20015;-83
2023/10/25 05:44:35;;;;;;;1.40;1.20;;;;;;;8.00;100.00;91470.88;6304275;22;19995;-83
2023/10/25 05:47:01;;;;;;;1.65;1.10;;;;;;;8.00;100.00;91463.06;6303256;22;20011;-83
2023/10/25 05:49:27;;;;;;;4.57;1.30;;;;;;;8.04;100.00;91471.84;6277036;22;20011;-82
2023/10/25 05:51:52;;;;;;;2.28;1.30;;;;;;;8.06;100.00;91467.13;6304082;22;20352;-82
2023/10/25 05:54:18;;;;;;;3.55;1.52;;;;;;;8.08;100.00;91472.00;6304099;22;20007;-82
2023/10/25 05:56:44;;;;;;;3.30;1.63;;;;;;;8.08;100.00;91467.59;6303607;22;20041;-82
2023/10/25 05:59:10;;;;;;;3.05;1.67;;;;;;;8.11;100.00;91480.03;6249809;22;20042;-84
2023/10/25 06:01:50;;;;;;;2.08;1.30;;;;;;;8.10;100.00;91478.47;6277121;22;20094;-83
2023/10/25 06:04:17;;;;;;;2.05;1.20;;;;;;;8.11;100.00;91480.03;6304579;22;20041;-82
2023/10/25 06:06:44;;;;;;;1.48;1.10;;;;;;;8.11;100.00;91482.63;6305955;22;20021;-82
2023/10/25 06:09:11;;;;;;;1.20;1.08;;;;;;;8.11;100.00;91481.88;6279302;22;20011;-82
2023/10/25 06:11:39;;;;;;;1.88;1.13;;;;;;;8.11;100.00;91487.84;6305489;22;20031;-83
2023/10/25 06:14:06;;;;;;;2.42;1.60;;;;;;;8.12;100.00;91481.56;6305128;22;20019;-82
2023/10/25 06:16:32;;;;;;;2.65;1.73;;;;;;;8.13;100.00;91483.13;6307090;22;20019;-82
2023/10/25 06:18:57;;;;;;;3.45;2.25;;;;;;;8.14;100.00;91479.44;6307426;22;20040;-83
2023/10/25 06:21:23;;;;;;;3.35;2.03;;;;;;;8.12;100.00;91478.94;6307124;22;20003;-82
2023/10/25 06:23:50;;;;;;;4.05;1.98;;;;;;;8.19;100.00;91488.19;6306777;22;20030;-83
2023/10/25 06:26:16;;;;;;;2.75;1.42;;;;;;;8.17;100.00;91485.13;6279496;22;20499;-82
2023/10/25 06:28:42;;;;;;;1.95;1.30;;;;;;;8.15;100.00;91495.84;6307346;22;20003;-82
2023/10/25 06:31:12;;;;;;;4.00;1.30;;;;;;;8.12;100.00;91497.19;6251868;22;20337;-85
2023/10/25 06:33:38;;;;;;;1.42;1.15;;;;;;;8.13;100.00;91498.00;6303376;22;20017;-84
2023/10/25 06:36:04;;;;;;;1.75;1.23;;;;;;;8.13;100.00;91498.00;6302685;22;20063;-84
2023/10/25 06:38:30;;;;;;;1.98;1.25;;;;;;;8.16;100.00;91504.44;6276067;22;20448;-84
2023/10/25 06:40:56;;;;;;;1.90;1.30;;;;;;;8.20;100.00;91502.78;6302659;22;20011;-83
2023/10/25 06:43:22;;;;;;;1.55;1.15;;;;;;;8.27;100.00;91503.91;6303974;22;20057;-83
2023/10/25 06:45:48;;;;;;;2.40;1.30;;;;;;;8.33;100.00;91502.75;6277598;22;20022;-82
2023/10/25 06:48:14;;;;;;;1.67;1.20;;;;;;;8.38;100.00;91501.09;6305018;22;20069;-82
2023/10/25 06:50:43;;;;;;;2.70;1.25;;;;;;;8.43;100.00;91506.97;6252642;22;20383;-81
2023/10/25 06:53:08;;;;;;;2.00;1.38;;;;;;;8.51;100.00;91518.53;6303746;22;20039;-82
2023/10/25 06:55:34;;;;;;;2.70;1.40;;;;;;;8.55;100.00;91516.88;6301475;22;20327;-82
2023/10/25 06:58:00;;;;;;;1.90;1.38;;;;;;;8.66;100.00;91515.56;6302064;22;20019;-82
2023/10/25 07:00:26;;;;;;;2.15;1.40;;;;;;;8.79;100.00;91521.78;6252657;22;20066;-81
2023/10/25 07:02:53;;;;;;;2.70;1.45;;;;;;;8.91;100.00;91522.00;6302921;22;20014;-82
2023/10/25 07:05:21;;;;;;;3.35;1.50;;;;;;;9.06;100.00;91528.69;6303787;22;20011;-83
2023/10/25 07:07:50;;;;;;;1.73;1.30;;;;;;;9.64;100.00;91532.16;6300443;22;20011;-83
2023/10/25 07:10:17;;;;;;;2.38;1.25;;;;;;;10.07;100.00;91528.88;6299268;22;20144;-82
2023/10/25 07:12:43;;;;;;;1.98;1.20;;;;;;;10.53;100.00;91530.16;6299446;22;20019;-83
2023/10/25 07:15:10;;;;;;;2.05;1.10;;;;;;;10.73;100.00;91517.53;6298299;22;20068;-83
2023/10/25 07:17:37;;;;;;;1.33;1.15;;;;;;;10.71;100.00;91524.91;6298113;22;20015;-82
2023/10/25 07:20:07;;;;;;;1.77;1.20;;;;;;;10.73;100.00;91522.75;6299538;22;20341;-81
2023/10/25 07:22:33;;;;;;;2.40;1.35;;;;;;;10.76;100.00;91522.13;6298068;22;20340;-81
2023/10/25 07:24:59;;;;;;;2.05;1.30;;;;;;;10.74;100.00;91519.84;6272632;22;20330;-82
2023/10/25 07:27:25;;;;;;;3.63;1.30;;;;;;;10.76;100.00;91522.13;6304753;22;20014;-82
2023/10/25 07:29:51;;;;;;;1.98;1.20;;;;;;;10.78;100.00;91522.59;6306564;22;20007;-82
2023/10/25 07:32:16;;;;;;;1.70;1.23;;;;;;;10.86;100.00;91521.06;6306567;22;20011;-82
2023/10/25 07:34:42;;;;;;;1.48;1.25;;;;;;;10.92;100.00;91520.59;6279599;22;20010;-83
2023/10/25 07:37:08;;;;;;;2.65;1.27;;;;;;;10.96;100.00;91526.72;6304575;22;20346;-81
2023/10/25 07:39:34;;;;;;;2.70;1.40;;;;;;;11.04;100.00;91527.81;6304583;22;19999;-82
2023/10/25 07:42:01;;;;;;;1.90;1.20;;;;;;;11.12;100.00;91529.63;6304485;22;20015;-82
2023/10/25 07:44:28;;;;;;;3.15;1.60;;;;;;;11.19;100.00;91531.75;6305514;22;20052;-81
2023/10/25 07:46:53;;;;;;;2.70;1.40;;;;;;;11.54;100.00;91526.41;6305228;22;20391;-82
2023/10/25 07:49:19;;;;;;;2.97;1.35;;;;;;;12.58;100.00;91527.69;6306388;22;20002;-82
2023/10/25 07:51:45;;;;;;;1.88;1.20;;;;;;;13.37;100.00;91519.88;6280580;22;20019;-83
2023/10/25 07:54:10;;;;;;;3.58;1.30;;;;;;;14.19;100.00;91527.69;6307294;22;20022;-83
2023/10/25 07:56:36;;;;;;;2.58;1.40;;;;;;;14.67;100.00;91530.56;6280685;22;20019;-82
2023/10/25 07:59:02;;;;;;;4.20;1.60;;;;;;;14.73;100.00;91537.91;6306645;22;20067;-82
2023/10/25 08:01:28;;;;;;;4.72;1.88;;;;;;;14.62;100.00;91541.34;6281024;22;20041;-83
2023/10/25 08:03:54;;;;;;;6.28;2.65;;;;;;;14.60;100.00;91546.19;6307671;22;20047;-84
2023/10/25 08:06:20;;;;;;;6.90;2.50;;;;;;;14.11;100.00;91544.34;6305568;22;20034;-83
2023/10/25 08:08:48;;;;;;;4.07;2.55;;;;;;;14.01;100.00;91550.81;6306205;22;20000;-83
2023/10/25 08:11:15;;;;;;;5.25;2.22;;;;;;;13.98;100.00;91542.81;6306008;22;20011;-83
2023/10/25 08:13:42;;;;;;;7.13;2.60;;;;;;;14.07;100.00;91552.16;6278945;22;20084;-84
2023/10/25 08:16:08;;;;;;;4.55;1.98;;;;;;;14.14;100.00;91562.13;6306005;22;20042;-82
2023/10/25 08:18:34;;;;;;;3.58;1.90;;;;;;;14.27;100.00;91560.22;6278005;22;20022;-83
2023/10/25 08:21:01;;;;;;;3.05;1.73;;;;;;;14.21;100.00;91561.53;6305903;22;20476;-83
2023/10/25 08:23:28;;;;;;;3.58;1.80;;;;;;;14.33;100.00;91558.91;6306683;22;19995;-82
2023/10/25 08:25:58;;;;;;;2.90;1.50;;;;;;;13.91;100.00;91559.91;6307889;22;20468;-83
2023/10/25 08:28:24;;;;;;;2.03;1.25;;;;;;;13.46;100.00;91563.34;6279332;22;20153;-83
2023/10/25 08:30:50;;;;;;;1.75;1.30;;;;;;;13.10;100.00;91558.75;6305892;22;20030;-82
2023/10/25 08:33:15;;;;;;;4.18;1.33;;;;;;;13.00;100.00;91559.91;6252536;22;20011;-82
2023/10/25 08:35:41;;;;;;;2.28;1.30;;;;;;;12.88;100.00;91563.28;6307745;22;20064;-83
2023/10/25 08:38:06;;;;;;;1.83;1.40;;;;;;;12.49;100.00;91567.13;6308548;22;20007;-84
2023/10/25 08:40:32;;;;;;;4.28;1.60;;;;;;;12.47;100.00;91571.91;6281424;22;20019;-83
2023/10/25 08:42:59;;;;;;;2.88;1.40;;;;;;;12.34;100.00;91576.34;6308609;22;20011;-83
2023/10/25 08:45:25;;;;;;;2.22;1.42;;;;;;;12.29;100.00;91574.66;6309132;22;20000;-83
2023/10/25 08:47:51;;;;;;;1.50;1.20;;;;;;;12.22;100.00;91584.88;6306438;22;20069;-81
2023/10/25 08:50:21;;;;;;;4.75;1.63;;;;;;;12.14;100.00;91577.84;6307230;22;20445;-82
2023/10/25 08:52:49;;;;;;;8.75;2.58;;;;;;;12.11;100.00;91582.94;6279188;22;20043;-82
2023/10/25 08:55:17;;;;;;;3.15;1.23;;;;;;;11.97;100.00;91578.69;6251393;22;20007;-82
2023/10/25 08:57:43;;;;;;;4.20;1.60;;;;;;;11.88;100.00;91575.34;6306118;22;20015;-82
2023/10/25 09:00:11;;;;;;;7.47;1.63;;;;;;;11.83;100.00;91578.88;6305558;22;20517;-82
2023/10/25 09:02:38;;;;;;;3.03;1.35;;;;;;;11.76;100.00;91580.47;6277361;22;20019;-82
2023/10/25 09:05:08;;;;;;;40.22;5.00;;;;;;;11.81;100.00;91581.03;6305656;22;20003;-82
2023/10/25 09:07:35;;;;;;;71.18;6.97;;;;;;;11.60;100.00;91585.44;6305464;22;20060;-82
2023/10/25 09:10:06;;;;;;;9.68;3.33;;;;;;;11.55;100.00;91582.97;6280100;22;20014;-82
2023/10/25 09:12:32;;;;;;;7.88;2.40;;;;;;;11.57;100.00;91593.91;6307120;22;20007;-81
2023/10/25 09:14:58;;;;;;;3.92;1.80;;;;;;;11.83;100.00;91584.13;6307089;22;20043;-80
2023/10/25 09:17:24;;;;;;;3.03;1.40;;;;;;;11.88;100.00;91591.06;6306632;22;20018;-81
2023/10/25 09:19:50;;;;;;;3.15;1.50;;;;;;;12.32;100.00;91585.63;6307697;22;20007;-81
2023/10/25 09:22:30;;;;;;;3.70;1.52;;;;;;;12.77;100.00;91585.00;6307021;22;20017;-83
2023/10/25 09:25:00;;;;;;;6.15;2.00;;;;;;;12.59;100.00;91590.38;6306079;22;20382;-82
2023/10/25 09:27:27;;;;;;;5.90;2.63;;;;;;;12.39;100.00;91588.50;6305446;22;20011;-83
2023/10/25 09:29:54;;;;;;;11.65;2.55;;;;;;;12.21;100.00;91588.59;6277976;22;20007;-83
2023/10/25 09:32:21;;;;;;;8.52;3.20;;;;;;;11.95;100.00;91587.97;6306284;22;20034;-82
2023/10/25 09:34:48;;;;;;;5.10;2.70;;;;;;;11.79;100.00;91591.06;6304417;22;20014;-82
2023/10/25 09:37:15;;;;;;;31.73;4.75;;;;;;;11.65;100.00;91582.66;6305851;22;20008;-81
2023/10/25 09:39:41;;;;;;;10.30;3.03;;;;;;;11.54;100.00;91591.94;6304369;22;20029;-83
2023/10/25 09:42:11;;;;;;;5.35;3.13;;;;;;;11.39;100.00;91586.13;6305027;22;20011;-83
2023/10/25 09:44:50;;;;;;;4.45;2.83;;;;;;;11.35;100.00;91585.22;6306845;22;20518;-83
2023/10/25 09:47:18;;;;;;;4.88;2.42;;;;;;;11.23;100.00;91590.31;6305893;22;20467;-83
2023/10/25 09:49:48;;;;;;;5.63;2.10;;;;;;;11.28;100.00;91592.78;6305890;22;20003;-82
2023/10/25 09:52:27;;;;;;;5.70;2.55;;;;;;;11.47;100.00;91581.94;6305196;22;20456;-82
2023/10/25 09:55:02;;;;;;;3.03;1.88;;;;;;;11.69;100.00;91580.94;6278433;22;20012;-82
2023/10/25 09:57:29;;;;;;;4.22;1.73;;;;;;;11.94;100.00;91592.44;6277548;22;20028;-82
2023/10/25 09:59:56;;;;;;;2.53;1.50;;;;;;;12.07;100.00;91585.44;6303097;22;20017;-82
2023/10/25 10:03:02;;;;;;;2.00;1.40;;;;;;;12.37;100.00;91588.06;6304719;22;20014;-82
2023/10/25 10:05:37;;;;;;;5.03;1.70;;;;;;;12.26;100.00;91588.41;6201978;22;20472;-82
2023/10/25 10:08:16;;;;;;;5.28;2.00;;;;;;;12.32;100.00;91598.75;6304208;22;20448;-82
2023/10/25 10:10:47;;;;;;;2.95;1.70;;;;;;;12.55;100.00;91592.09;6305298;22;20039;-82
2023/10/25 10:13:15;;;;;;;3.08;1.67;;;;;;;12.77;100.00;91587.63;6305751;22;20035;-83
2023/10/25 10:16:04;;;;;;;3.20;1.60;;;;;;;12.92;100.00;91594.91;6304062;22;20534;-83
2023/10/25 10:18:34;;;;;;;2.97;1.67;;;;;;;12.84;100.00;91598.38;6304867;22;20015;-83
2023/10/25 10:21:03;;;;;;;5.93;2.17;;;;;;;12.69;100.00;91587.34;6278331;22;20086;-83
2023/10/25 10:23:38;;;;;;;6.43;2.88;;;;;;;12.63;100.00;91591.28;6304090;22;20007;-84
2023/10/25 10:26:05;;;;;;;4.38;2.15;;;;;;;12.82;100.00;91596.06;6305053;22;20011;-84
2023/10/25 10:28:46;;;;;;;6.20;2.70;;;;;;;12.98;100.00;91587.59;6303647;22;20010;-84
2023/10/25 10:31:13;;;;;;;4.68;2.08;;;;;;;12.88;100.00;91591.41;6304454;22;20018;-83
2023/10/25 10:33:49;;;;;;;2.95;1.75;;;;;;;13.07;100.00;91581.19;6302316;22;20003;-83
2023/10/25 10:36:26;;;;;;;3.10;1.48;;;;;;;13.65;100.00;91572.63;6276388;22;20064;-84
2023/10/25 10:39:16;;;;;;;4.50;2.10;;;;;;;14.14;100.00;91573.41;6304943;22;20026;-85
2023/10/25 10:41:43;;;;;;;4.65;2.42;;;;;;;14.46;100.00;91567.56;6304614;22;20710;-84
2023/10/25 10:44:11;;;;;;;3.40;1.80;;;;;;;14.58;100.00;91567.56;6303928;22;20003;-83
2023/10/25 10:46:50;;;;;;;3.83;2.05;;;;;;;14.61;100.00;91559.00;6302685;22;20103;-85
2023/10/25 10:49:19;;;;;;;4.55;2.40;;;;;;;14.25;100.00;91563.22;6275967;22;20011;-85
2023/10/25 10:51:45;;;;;;;4.35;2.30;;;;;;;13.98;100.00;91563.84;6303391;22;20018;-84
2023/10/25 10:54:11;;;;;;;5.75;2.20;;;;;;;13.62;100.00;91554.84;6304721;22;20448;-83
2023/10/25 10:56:37;;;;;;;4.25;2.15;;;;;;;13.50;100.00;91560.84;6307284;22;20078;-84
2023/10/25 10:59:02;;;;;;;4.80;2.10;;;;;;;13.24;100.00;91559.25;6278680;22;20023;-87
2023/10/25 11:01:29;;;;;;;4.38;2.10;;;;;;;13.08;100.00;91560.91;6306752;22;20014;-84
2023/10/25 11:03:59;;;;;;;6.13;2.35;;;;;;;13.15;100.00;91550.69;6305636;22;20023;-83
2023/10/25 11:06:25;;;;;;;4.22;2.40;;;;;;;13.10;100.00;91543.78;6304843;22;19999;-84
2023/10/25 11:08:52;;;;;;;4.90;2.83;;;;;;;13.31;100.00;91537.72;6279271;22;20089;-84
2023/10/25 11:11:21;;;;;;;5.80;2.83;;;;;;;13.36;100.00;91534.13;6304264;22;20329;-84
2023/10/25 11:13:49;;;;;;;5.32;3.00;;;;;;;13.28;100.00;91525.22;6303579;22;20376;-83
2023/10/25 11:16:15;;;;;;;4.15;2.72;;;;;;;13.26;100.00;91527.38;6278392;22;20021;-83
2023/10/25 11:18:41;;;;;;;4.35;2.63;;;;;;;13.49;100.00;91519.91;6303996;22;20030;-83
2023/10/25 11:21:06;;;;;;;4.25;2.25;;;;;;;13.47;100.00;91514.97;6278782;22;20003;-84
2023/10/25 11:23:32;;;;;;;4.85;2.50;;;;;;;13.23;100.00;91514.88;6307903;22;20011;-83
2023/10/25 11:25:58;;;;;;;4.47;2.17;;;;;;;13.25;100.00;91508.22;6306175;22;20244;-83
2023/10/25 11:28:26;;;;;;;6.93;2.40;;;;;;;13.06;100.00;91519.22;6278551;22;20038;-83
2023/10/25 11:30:52;;;;;;;3.45;2.20;;;;;;;12.87;100.00;91516.31;6303770;22;20007;-83